Time;durP1;ratioP1;P1;durP2;ratioP2;P2;SDS_P1;SDS_P2;PMS_P1;PMS_P2;Temp;Humidity;BMP_temperature;BMP_pressure;BME280_temperature;BME280_humidity;BME280_pressure;Samples;Min_cycle;Max_cycle;Signal;HPM_P1;HPM_P2
2022/10/21 00:02:21;;;;;;;;;;;;;;;;;;8431853;27;28937;-76
2022/10/21 00:06:21;;;;;;;;;;;;;;;;;;8417266;27;27323;-76
2022/10/21 00:10:21;;;;;;;;;;;;;;;;;;8403755;27;27314;-75
2022/10/21 00:14:22;;;;;;;;;;;;;;;;;;8419101;27;27305;-75
2022/10/21 00:18:22;;;;;;;;;;;;;;;;;;8418084;27;27174;-75
2022/10/21 00:22:22;;;;;;;;;;;;;;;;;;8411759;27;27613;-75
2022/10/21 00:26:22;;;;;;;;;;;;;;;;;;8414823;27;27256;-75
2022/10/21 00:30:22;;;;;;;;;;;;;;;;;;8414836;27;27644;-75
2022/10/21 00:34:22;;;;;;;;;;;;;;;;;;8412987;27;28017;-74
2022/10/21 00:38:22;;;;;;;;;;;;;;;;;;8394758;27;28152;-76
2022/10/21 00:42:22;;;;;;;;;;;;;;;;;;8414115;27;27370;-74
2022/10/21 00:46:23;;;;;;;;;;;;;;;;;;8411614;27;27996;-75
2022/10/21 00:50:23;;;;;;;;;;;;;;;;;;8415196;27;27408;-76
2022/10/21 00:54:23;;;;;;;;;;;;;;;;;;8413910;27;27394;-74
2022/10/21 00:58:23;;;;;;;;;;;;;;;;;;8421369;27;28406;-76
2022/10/21 01:02:23;;;;;;;;;;;;;;;;;;8401285;27;28296;-75
2022/10/21 01:06:23;;;;;;;;;;;;;;;;;;8401750;27;28198;-76
2022/10/21 01:10:23;;;;;;;;;;;;;;;;;;8397110;27;28292;-75
2022/10/21 01:14:24;;;;;;;;;;;;;;;;;;8414408;27;27192;-75
2022/10/21 01:18:24;;;;;;;;;;;;;;;;;;8400569;27;28171;-76
2022/10/21 01:22:24;;;;;;;;;;;;;;;;;;8401027;27;28211;-76
2022/10/21 01:26:24;;;;;;;;;;;;;;;;;;8411723;27;27214;-76
2022/10/21 01:30:24;;;;;;;;;;;;;;;;;;8415858;27;27286;-76
2022/10/21 01:34:24;;;;;;;;;;;;;;;;;;8417017;27;27234;-76
2022/10/21 01:38:24;;;;;;;;;;;;;;;;;;8414095;27;27335;-75
2022/10/21 01:42:25;;;;;;;;;;;;;;;;;;8398907;27;28114;-75
2022/10/21 01:46:25;;;;;;;;;;;;;;;;;;8399494;27;46326;-76
2022/10/21 01:50:25;;;;;;;;;;;;;;;;;;8399357;27;28279;-76
2022/10/21 01:54:25;;;;;;;;;;;;;;;;;;8431521;27;28265;-74
2022/10/21 01:58:25;;;;;;;;;;;;;;;;;;8428640;27;28447;-75
2022/10/21 02:02:25;;;;;;;;;;;;;;;;;;8426733;27;28697;-74
2022/10/21 02:06:25;;;;;;;;;;;;;;;;;;8415541;27;27438;-75
2022/10/21 02:10:26;;;;;;;;;;;;;;;;;;8426156;27;27751;-75
2022/10/21 02:14:26;;;;;;;;;;;;;;;;;;8429369;27;27278;-77
2022/10/21 02:18:26;;;;;;;;;;;;;;;;;;8443585;27;27353;-76
2022/10/21 02:22:26;;;;;;;;;;;;;;;;;;8432579;27;28445;-75
2022/10/21 02:26:26;;;;;;;;;;;;;;;;;;8449721;27;27505;-76
2022/10/21 02:30:26;;;;;;;;;;;;;;;;;;8450338;27;27122;-75
2022/10/21 02:34:29;;;;;;;;;;;;;;;;;;8453391;27;27164;-75
2022/10/21 02:38:29;;;;;;;;;;;;;;;;;;8439386;27;27320;-74
2022/10/21 02:42:29;;;;;;;;;;;;;;;;;;8413157;27;27368;-75
2022/10/21 02:46:29;;;;;;;;;;;;;;;;;;8418361;27;27656;-75
2022/10/21 02:50:29;;;;;;;;;;;;;;;;;;8406748;27;28019;-74
2022/10/21 02:54:29;;;;;;;;;;;;;;;;;;8403217;27;28179;-76
2022/10/21 02:58:29;;;;;;;;;;;;;;;;;;8421114;27;27468;-76
2022/10/21 03:02:30;;;;;;;;;;;;;;;;;;8420866;27;27488;-75
2022/10/21 03:06:30;;;;;;;;;;;;;;;;;;8409656;27;27782;-74
2022/10/21 03:10:30;;;;;;;;;;;;;;;;;;8426346;27;27216;-74
2022/10/21 03:14:30;;;;;;;;;;;;;;;;;;8422652;27;27440;-76
2022/10/21 03:18:30;;;;;;;;;;;;;;;;;;8417195;27;27435;-77
2022/10/21 03:22:30;;;;;;;;;;;;;;;;;;8423623;27;27417;-76
2022/10/21 03:26:30;;;;;;;;;;;;;;;;;;8420802;27;27337;-77
2022/10/21 03:30:30;;;;;;;;;;;;;;;;;;8416201;27;27409;-76
2022/10/21 03:34:31;;;;;;;;;;;;;;;;;;8418032;27;27882;-76
2022/10/21 03:38:31;;;;;;;;;;;;;;;;;;8433679;27;28184;-76
2022/10/21 03:42:31;;;;;;;;;;;;;;;;;;8431694;27;28446;-76
2022/10/21 03:46:31;;;;;;;;;;;;;;;;;;8404523;27;28530;-76
2022/10/21 03:50:31;;;;;;;;;;;;;;;;;;8400197;27;28229;-76
2022/10/21 03:54:31;;;;;;;;;;;;;;;;;;8431743;27;28315;-76
2022/10/21 03:58:34;;;;;;;;;;;;;;;;;;8404410;27;28223;-76
2022/10/21 04:02:34;;;;;;;;;;;;;;;;;;8399999;27;28518;-76
2022/10/21 04:06:34;;;;;;;;;;;;;;;;;;8415842;27;28150;-76
2022/10/21 04:10:34;;;;;;;;;;;;;;;;;;8430729;27;28178;-76
2022/10/21 04:14:34;;;;;;;;;;;;;;;;;;8413840;27;27698;-77
2022/10/21 04:18:34;;;;;;;;;;;;;;;;;;8413512;27;27438;-76
2022/10/21 04:22:35;;;;;;;;;;;;;;;;;;8415706;27;27870;-75
2022/10/21 04:26:35;;;;;;;;;;;;;;;;;;8404478;27;28633;-76
2022/10/21 04:30:35;;;;;;;;;;;;;;;;;;8414145;27;27241;-77
2022/10/21 04:34:35;;;;;;;;;;;;;;;;;;8413331;27;27471;-76
2022/10/21 04:38:35;;;;;;;;;;;;;;;;;;8416351;27;27749;-76
2022/10/21 04:42:36;;;;;;;;;;;;;;;;;;8412334;27;27472;-76
2022/10/21 04:46:36;;;;;;;;;;;;;;;;;;8394083;27;29030;-76
2022/10/21 04:50:36;;;;;;;;;;;;;;;;;;8397281;27;28481;-77
2022/10/21 04:54:36;;;;;;;;;;;;;;;;;;8413970;27;27788;-77
2022/10/21 04:58:36;;;;;;;;;;;;;;;;;;8412377;27;46961;-76
2022/10/21 05:02:36;;;;;;;;;;;;;;;;;;8399153;27;28265;-77
2022/10/21 05:06:37;;;;;;;;;;;;;;;;;;8396818;27;28121;-78
2022/10/21 05:10:37;;;;;;;;;;;;;;;;;;8400317;27;28168;-77
2022/10/21 05:14:37;;;;;;;;;;;;;;;;;;8414489;27;27681;-77
2022/10/21 05:18:37;;;;;;;;;;;;;;;;;;8413866;27;27273;-77
2022/10/21 05:22:37;;;;;;;;;;;;;;;;;;8425457;27;28983;-77
2022/10/21 05:26:37;;;;;;;;;;;;;;;;;;8399381;27;28158;-75
2022/10/21 05:30:37;;;;;;;;;;;;;;;;;;8394034;27;29395;-77
2022/10/21 05:34:37;;;;;;;;;;;;;;;;;;8415264;27;27487;-78
2022/10/21 05:38:38;;;;;;;;;;;;;;;;;;8420445;27;27258;-76
2022/10/21 05:42:38;;;;;;;;;;;;;;;;;;8410549;27;27453;-78
2022/10/21 05:46:38;;;;;;;;;;;;;;;;;;8411326;27;28373;-78
2022/10/21 05:50:39;;;;;;;;;;;;;;;;;;8425909;27;46933;-77
2022/10/21 05:54:39;;;;;;;;;;;;;;;;;;8410664;27;27562;-77
2022/10/21 05:58:39;;;;;;;;;;;;;;;;;;8397622;27;28162;-77
2022/10/21 06:02:40;;;;;;;;;;;;;;;;;;8400146;27;29831;-76
2022/10/21 06:06:40;;;;;;;;;;;;;;;;;;8416651;27;27786;-77
2022/10/21 06:10:40;;;;;;;;;;;;;;;;;;8417571;27;27417;-77
2022/10/21 06:14:40;;;;;;;;;;;;;;;;;;8411292;27;28072;-77
2022/10/21 06:18:40;;;;;;;;;;;;;;;;;;8409033;27;28031;-77
2022/10/21 06:22:40;;;;;;;;;;;;;;;;;;8399316;27;28559;-76
2022/10/21 06:26:40;;;;;;;;;;;;;;;;;;8413704;27;27126;-77
2022/10/21 06:30:40;;;;;;;;;;;;;;;;;;8422887;27;28139;-76
2022/10/21 06:34:41;;;;;;;;;;;;;;;;;;8411366;27;27882;-78
2022/10/21 06:38:41;;;;;;;;;;;;;;;;;;8423467;27;28580;-79
2022/10/21 06:42:41;;;;;;;;;;;;;;;;;;8402152;27;28487;-77
2022/10/21 06:46:41;;;;;;;;;;;;;;;;;;8429613;27;28829;-76
2022/10/21 06:50:41;;;;;;;;;;;;;;;;;;8395475;27;29625;-76
2022/10/21 06:54:41;;;;;;;;;;;;;;;;;;8397935;27;29471;-76
2022/10/21 06:58:45;;;;;;;;;;;;;;;;;;8414158;27;27622;-76
2022/10/21 07:02:45;;;;;;;;;;;;;;;;;;8412120;27;27478;-76
2022/10/21 07:06:45;;;;;;;;;;;;;;;;;;8409161;27;28540;-75
2022/10/21 07:10:45;;;;;;;;;;;;;;;;;;8428241;27;27628;-76
2022/10/21 07:14:45;;;;;;;;;;;;;;;;;;8408728;27;28180;-77
2022/10/21 07:18:45;;;;;;;;;;;;;;;;;;8395774;27;28265;-77
2022/10/21 07:22:46;;;;;;;;;;;;;;;;;;8410524;27;27181;-77
2022/10/21 07:26:46;;;;;;;;;;;;;;;;;;8412535;27;27400;-79
2022/10/21 07:30:46;;;;;;;;;;;;;;;;;;8419471;27;27456;-77
2022/10/21 07:34:47;;;;;;;;;;;;;;;;;;8401815;27;28177;-77
2022/10/21 07:38:47;;;;;;;;;;;;;;;;;;8458844;27;28558;-76
2022/10/21 07:42:47;;;;;;;;;;;;;;;;;;8451273;27;27457;-78
2022/10/21 07:46:47;;;;;;;;;;;;;;;;;;8455091;27;27404;-76
2022/10/21 07:50:47;;;;;;;;;;;;;;;;;;8442044;27;28576;-76
2022/10/21 07:54:47;;;;;;;;;;;;;;;;;;8446441;27;28582;-77
2022/10/21 07:58:48;;;;;;;;;;;;;;;;;;8457041;27;26935;-78
2022/10/21 08:02:48;;;;;;;;;;;;;;;;;;8475334;27;28337;-76
2022/10/21 08:06:48;;;;;;;;;;;;;;;;;;8427147;27;28620;-77
2022/10/21 08:10:48;;;;;;;;;;;;;;;;;;8435771;27;28519;-77
2022/10/21 08:14:48;;;;;;;;;;;;;;;;;;8416638;27;27484;-76
2022/10/21 08:18:48;;;;;;;;;;;;;;;;;;8417360;27;27175;-76
2022/10/21 08:22:49;;;;;;;;;;;;;;;;;;8416575;27;27483;-77
2022/10/21 08:26:49;;;;;;;;;;;;;;;;;;8401434;27;28228;-76
2022/10/21 08:30:49;;;;;;;;;;;;;;;;;;8413401;27;27306;-76
2022/10/21 08:34:49;;;;;;;;;;;;;;;;;;8414785;27;27457;-76
2022/10/21 08:38:49;;;;;;;;;;;;;;;;;;8397006;27;28601;-76
2022/10/21 08:42:49;;;;;;;;;;;;;;;;;;8396341;27;28528;-74
2022/10/21 08:46:49;;;;;;;;;;;;;;;;;;8416086;27;27511;-76
2022/10/21 08:50:50;;;;;;;;;;;;;;;;;;8400727;27;28240;-75
2022/10/21 08:54:50;;;;;;;;;;;;;;;;;;8405621;27;28171;-75
2022/10/21 08:58:50;;;;;;;;;;;;;;;;;;8401493;27;28398;-76
2022/10/21 09:02:50;;;;;;;;;;;;;;;;;;8400964;27;28408;-76
2022/10/21 09:06:50;;;;;;;;;;;;;;;;;;8416251;27;27419;-76
2022/10/21 09:10:50;;;;;;;;;;;;;;;;;;8400764;27;28471;-79
2022/10/21 09:14:53;;;;;;;;;;;;;;;;;;8433888;27;28496;-77
2022/10/21 09:18:53;;;;;;;;;;;;;;;;;;8427847;27;28427;-77
2022/10/21 09:22:53;;;;;;;;;;;;;;;;;;8418414;27;27651;-76
2022/10/21 09:26:53;;;;;;;;;;;;;;;;;;8402228;27;28340;-76
2022/10/21 09:30:53;;;;;;;;;;;;;;;;;;8397507;27;28246;-76
2022/10/21 09:34:53;;;;;;;;;;;;;;;;;;8395934;27;28320;-76
2022/10/21 09:38:54;;;;;;;;;;;;;;;;;;8431711;27;29119;-76
2022/10/21 09:42:57;;;;;;;;;;;;;;;;;;8396882;27;28561;-77
2022/10/21 09:46:57;;;;;;;;;;;;;;;;;;8415943;27;27852;-76
2022/10/21 09:50:58;;;;;;;;;;;;;;;;;;8416270;27;27664;-75
2022/10/21 09:54:58;;;;;;;;;;;;;;;;;;8415589;27;27250;-75
2022/10/21 09:58:58;;;;;;;;;;;;;;;;;;8415211;27;27891;-77
2022/10/21 10:02:58;;;;;;;;;;;;;;;;;;8414533;27;27471;-76
2022/10/21 10:06:58;;;;;;;;;;;;;;;;;;8412728;27;27500;-76
2022/10/21 10:10:58;;;;;;;;;;;;;;;;;;8411334;27;28054;-75
2022/10/21 10:14:59;;;;;;;;;;;;;;;;;;8424265;27;28197;-76
2022/10/21 10:18:59;;;;;;;;;;;;;;;;;;8403367;27;28266;-77
2022/10/21 10:22:59;;;;;;;;;;;;;;;;;;8430225;27;28258;-76
2022/10/21 10:26:59;;;;;;;;;;;;;;;;;;8410832;27;27515;-76
2022/10/21 10:30:59;;;;;;;;;;;;;;;;;;8400139;27;28493;-76
2022/10/21 10:35:01;;;;;;;;;;;;;;;;;;8410905;27;27964;-76
2022/10/21 10:39:02;;;;;;;;;;;;;;;;;;8430519;27;28352;-77
2022/10/21 10:43:02;;;;;;;;;;;;;;;;;;8399128;27;28300;-75
2022/10/21 10:47:02;;;;;;;;;;;;;;;;;;8397073;27;29516;-75
2022/10/21 10:51:02;;;;;;;;;;;;;;;;;;8403034;27;28432;-76
2022/10/21 10:55:02;;;;;;;;;;;;;;;;;;8401847;27;28418;-75
2022/10/21 10:59:02;;;;;;;;;;;;;;;;;;8396286;27;28110;-76
2022/10/21 11:03:02;;;;;;;;;;;;;;;;;;8412065;27;27688;-75
2022/10/21 11:07:03;;;;;;;;;;;;;;;;;;8404326;27;27506;-76
2022/10/21 11:11:03;;;;;;;;;;;;;;;;;;8404676;27;28305;-75
2022/10/21 11:15:03;;;;;;;;;;;;;;;;;;8399889;27;29690;-77
2022/10/21 11:19:03;;;;;;;;;;;;;;;;;;8403304;27;28253;-76
2022/10/21 11:23:03;;;;;;;;;;;;;;;;;;8403879;27;28131;-76
2022/10/21 11:27:03;;;;;;;;;;;;;;;;;;8406007;27;29281;-78
2022/10/21 11:31:04;;;;;;;;;;;;;;;;;;8415584;27;27345;-77
2022/10/21 11:35:04;;;;;;;;;;;;;;;;;;8401940;27;27817;-76
2022/10/21 11:39:04;;;;;;;;;;;;;;;;;;8429387;27;28470;-76
2022/10/21 11:43:04;;;;;;;;;;;;;;;;;;8413914;27;28176;-76
2022/10/21 11:47:04;;;;;;;;;;;;;;;;;;8415769;27;27524;-76
2022/10/21 11:51:08;;;;;;;;;;;;;;;;;;8418052;27;27626;-76
2022/10/21 11:55:08;;;;;;;;;;;;;;;;;;8404105;27;28581;-76
2022/10/21 11:59:08;;;;;;;;;;;;;;;;;;8419147;27;27397;-77
2022/10/21 12:03:08;;;;;;;;;;;;;;;;;;8396403;27;28479;-76
2022/10/21 12:07:08;;;;;;;;;;;;;;;;;;8429923;27;28180;-77
2022/10/21 12:11:08;;;;;;;;;;;;;;;;;;8393969;27;27460;-76
2022/10/21 12:15:08;;;;;;;;;;;;;;;;;;8413390;27;27663;-77
2022/10/21 12:19:09;;;;;;;;;;;;;;;;;;8418161;27;28599;-76
2022/10/21 12:23:09;;;;;;;;;;;;;;;;;;8405796;27;28670;-77
2022/10/21 12:27:09;;;;;;;;;;;;;;;;;;8422723;27;28145;-76
2022/10/21 12:33:31;;;;;;;;;;;;;;;;;;8487670;27;27682;-76
2022/10/21 12:37:31;;;;;;;;;;;;;;;;;;8447328;27;28367;-76
2022/10/21 12:41:33;;;;;;;;;;;;;;;;;;8442619;27;27964;-76
2022/10/21 12:45:33;;;;;;;;;;;;;;;;;;8449683;27;28238;-76
2022/10/21 12:49:34;;;;;;;;;;;;;;;;;;8448537;27;28239;-77
2022/10/21 12:53:35;;;;;;;;;;;;;;;;;;8453690;27;28443;-76
2022/10/21 12:57:35;;;;;;;;;;;;;;;;;;8448431;27;29528;-77
2022/10/21 13:01:35;;;;;;;;;;;;;;;;;;8452834;27;27438;-77
2022/10/21 13:05:35;;;;;;;;;;;;;;;;;;8461354;27;27517;-76
2022/10/21 13:09:35;;;;;;;;;;;;;;;;;;8464681;27;28105;-75
2022/10/21 13:13:35;;;;;;;;;;;;;;;;;;8462941;27;28962;-77
2022/10/21 13:17:36;;;;;;;;;;;;;;;;;;8461021;27;27473;-77
2022/10/21 13:21:36;;;;;;;;;;;;;;;;;;8473926;27;28650;-77
2022/10/21 13:25:36;;;;;;;;;;;;;;;;;;8474762;27;28311;-76
2022/10/21 13:29:36;;;;;;;;;;;;;;;;;;8470633;27;28241;-76
2022/10/21 13:33:37;;;;;;;;;;;;;;;;;;8446592;27;27549;-75
2022/10/21 13:37:37;;;;;;;;;;;;;;;;;;8443603;27;27772;-76
2022/10/21 13:41:37;;;;;;;;;;;;;;;;;;8444791;27;28698;-76
2022/10/21 13:45:38;;;;;;;;;;;;;;;;;;8420539;27;28141;-75
2022/10/21 13:49:40;;;;;;;;;;;;;;;;;;8415973;27;27650;-75
2022/10/21 13:53:42;;;;;;;;;;;;;;;;;;8421632;27;28635;-75
2022/10/21 13:57:43;;;;;;;;;;;;;;;;;;8425211;27;28441;-74
2022/10/21 14:01:45;;;;;;;;;;;;;;;;;;8424479;27;28507;-75
2022/10/21 14:05:45;;;;;;;;;;;;;;;;;;8425681;27;28845;-77
2022/10/21 14:09:45;;;;;;;;;;;;;;;;;;8415025;27;28135;-77
2022/10/21 14:13:45;;;;;;;;;;;;;;;;;;8415334;27;28619;-77
2022/10/21 14:17:45;;;;;;;;;;;;;;;;;;8428103;27;29088;-78
2022/10/21 14:21:46;;;;;;;;;;;;;;;;;;8426358;27;28935;-76
2022/10/21 14:25:46;;;;;;;;;;;;;;;;;;8425622;27;28225;-77
2022/10/21 14:29:46;;;;;;;;;;;;;;;;;;8420701;27;28293;-77
2022/10/21 14:33:46;;;;;;;;;;;;;;;;;;8423502;27;28102;-76
2022/10/21 14:37:46;;;;;;;;;;;;;;;;;;8422109;27;28307;-75
2022/10/21 14:41:48;;;;;;;;;;;;;;;;;;8422587;27;27578;-77
2022/10/21 14:45:48;;;;;;;;;;;;;;;;;;8416756;27;27133;-77
2022/10/21 14:49:48;;;;;;;;;;;;;;;;;;8417945;27;28143;-77
2022/10/21 14:53:50;;;;;;;;;;;;;;;;;;8418167;27;28022;-77
2022/10/21 14:57:50;;;;;;;;;;;;;;;;;;8421815;27;28572;-78
2022/10/21 15:01:50;;;;;;;;;;;;;;;;;;8418789;27;28674;-77
2022/10/21 15:05:50;;;;;;;;;;;;;;;;;;8418489;27;27537;-78
2022/10/21 15:09:50;;;;;;;;;;;;;;;;;;8421402;27;28047;-77
2022/10/21 15:13:50;;;;;;;;;;;;;;;;;;8416298;27;28662;-78
2022/10/21 15:17:51;;;;;;;;;;;;;;;;;;8412516;27;28774;-76
2022/10/21 15:21:51;;;;;;;;;;;;;;;;;;8418215;27;28413;-75
2022/10/21 15:25:51;;;;;;;;;;;;;;;;;;8415495;27;27431;-75
2022/10/21 15:29:51;;;;;;;;;;;;;;;;;;8419475;27;28641;-76
2022/10/21 15:33:51;;;;;;;;;;;;;;;;;;8423434;27;27427;-76
2022/10/21 15:37:51;;;;;;;;;;;;;;;;;;8419801;27;28290;-76
2022/10/21 15:41:53;;;;;;;;;;;;;;;;;;8418618;27;27978;-76
2022/10/21 15:45:54;;;;;;;;;;;;;;;;;;8419739;27;27663;-76
2022/10/21 15:49:55;;;;;;;;;;;;;;;;;;8415624;27;27284;-78
2022/10/21 15:53:55;;;;;;;;;;;;;;;;;;8419088;27;27377;-77
2022/10/21 15:57:55;;;;;;;;;;;;;;;;;;8420561;27;27417;-77
2022/10/21 16:01:55;;;;;;;;;;;;;;;;;;8416557;27;27232;-78
2022/10/21 16:05:55;;;;;;;;;;;;;;;;;;8419649;27;28318;-78
2022/10/21 16:09:55;;;;;;;;;;;;;;;;;;8419222;27;30172;-77
2022/10/21 16:13:55;;;;;;;;;;;;;;;;;;8423887;27;28132;-77
2022/10/21 16:17:55;;;;;;;;;;;;;;;;;;8418842;27;28557;-77
2022/10/21 16:21:56;;;;;;;;;;;;;;;;;;8417676;27;28241;-76
2022/10/21 16:25:56;;;;;;;;;;;;;;;;;;8422142;27;28431;-75
2022/10/21 16:29:56;;;;;;;;;;;;;;;;;;8420605;27;27811;-76
2022/10/21 16:33:56;;;;;;;;;;;;;;;;;;8429340;27;27455;-76
2022/10/21 16:37:56;;;;;;;;;;;;;;;;;;8418666;27;27458;-77
2022/10/21 16:41:56;;;;;;;;;;;;;;;;;;8412040;27;28466;-78
2022/10/21 16:45:56;;;;;;;;;;;;;;;;;;8425953;27;27544;-76
2022/10/21 16:49:57;;;;;;;;;;;;;;;;;;8421475;27;28434;-75
2022/10/21 16:53:57;;;;;;;;;;;;;;;;;;8414445;27;29076;-79
2022/10/21 16:57:57;;;;;;;;;;;;;;;;;;8424326;27;28364;-77
2022/10/21 17:01:57;;;;;;;;;;;;;;;;;;8422203;27;28604;-77
2022/10/21 17:05:57;;;;;;;;;;;;;;;;;;8418096;27;27378;-77
2022/10/21 17:09:57;;;;;;;;;;;;;;;;;;8419244;27;28118;-78
2022/10/21 17:13:58;;;;;;;;;;;;;;;;;;8424622;27;29642;-76
2022/10/21 17:17:59;;;;;;;;;;;;;;;;;;8416608;27;27495;-78
2022/10/21 17:21:59;;;;;;;;;;;;;;;;;;8426453;27;27954;-77
2022/10/21 17:25:59;;;;;;;;;;;;;;;;;;8420049;27;27351;-77
2022/10/21 17:29:59;;;;;;;;;;;;;;;;;;8432310;27;27531;-76
2022/10/21 17:34:05;;;;;;;;;;;;;;;;;;8427540;27;28524;-77
2022/10/21 17:38:05;;;;;;;;;;;;;;;;;;8417308;27;27693;-77
2022/10/21 17:42:05;;;;;;;;;;;;;;;;;;8420766;27;28293;-76
2022/10/21 17:46:05;;;;;;;;;;;;;;;;;;8420797;27;27244;-77
2022/10/21 17:50:05;;;;;;;;;;;;;;;;;;8429702;27;28466;-77
2022/10/21 17:54:06;;;;;;;;;;;;;;;;;;8423555;27;28205;-76
2022/10/21 17:58:06;;;;;;;;;;;;;;;;;;8425008;27;28180;-78
2022/10/21 18:02:07;;;;;;;;;;;;;;;;;;8420758;27;27746;-73
2022/10/21 18:06:08;;;;;;;;;;;;;;;;;;8430026;27;28597;-75
2022/10/21 18:10:08;;;;;;;;;;;;;;;;;;8429146;27;28217;-74
2022/10/21 18:14:08;;;;;;;;;;;;;;;;;;8425842;27;28344;-78
2022/10/21 18:18:08;;;;;;;;;;;;;;;;;;8425883;27;28296;-77
2022/10/21 18:22:08;;;;;;;;;;;;;;;;;;8423507;27;28217;-77
2022/10/21 18:26:08;;;;;;;;;;;;;;;;;;8428879;27;28224;-77
2022/10/21 18:30:09;;;;;;;;;;;;;;;;;;8445445;27;27089;-76
2022/10/21 18:34:09;;;;;;;;;;;;;;;;;;8448167;27;27434;-77
2022/10/21 18:38:09;;;;;;;;;;;;;;;;;;8457144;27;28119;-77
2022/10/21 18:42:09;;;;;;;;;;;;;;;;;;8447542;27;28425;-75
2022/10/21 18:46:09;;;;;;;;;;;;;;;;;;8457436;27;27577;-76
2022/10/21 18:50:11;;;;;;;;;;;;;;;;;;8454023;27;28838;-76
2022/10/21 18:54:11;;;;;;;;;;;;;;;;;;8431587;27;28843;-77
2022/10/21 18:58:11;;;;;;;;;;;;;;;;;;8439890;27;28588;-76
2022/10/21 19:02:11;;;;;;;;;;;;;;;;;;8424708;27;27759;-77
2022/10/21 19:06:11;;;;;;;;;;;;;;;;;;8424390;27;27345;-76
2022/10/21 19:10:12;;;;;;;;;;;;;;;;;;8419429;27;28358;-77
2022/10/21 19:14:13;;;;;;;;;;;;;;;;;;8422195;27;27672;-77
2022/10/21 19:18:13;;;;;;;;;;;;;;;;;;8418110;27;27275;-75
2022/10/21 19:22:15;;;;;;;;;;;;;;;;;;8418009;27;28550;-77
2022/10/21 19:26:16;;;;;;;;;;;;;;;;;;8418618;27;28444;-77
2022/10/21 19:30:16;;;;;;;;;;;;;;;;;;8424446;27;27546;-78
2022/10/21 19:34:16;;;;;;;;;;;;;;;;;;8420629;27;27947;-77
2022/10/21 19:38:16;;;;;;;;;;;;;;;;;;8420768;27;27433;-77
2022/10/21 19:42:16;;;;;;;;;;;;;;;;;;8417067;27;27101;-77
2022/10/21 19:46:16;;;;;;;;;;;;;;;;;;8419796;27;28263;-76
2022/10/21 19:50:17;;;;;;;;;;;;;;;;;;8425361;27;28668;-77
2022/10/21 19:54:17;;;;;;;;;;;;;;;;;;8415069;27;27750;-77
2022/10/21 19:58:17;;;;;;;;;;;;;;;;;;8419103;27;27412;-76
2022/10/21 20:02:17;;;;;;;;;;;;;;;;;;8421100;27;27501;-79
2022/10/21 20:06:17;;;;;;;;;;;;;;;;;;8424536;27;29080;-76
2022/10/21 20:10:19;;;;;;;;;;;;;;;;;;8423755;27;28396;-76
2022/10/21 20:14:19;;;;;;;;;;;;;;;;;;8423670;27;28341;-76
2022/10/21 20:18:19;;;;;;;;;;;;;;;;;;8420660;27;28385;-76
2022/10/21 20:22:20;;;;;;;;;;;;;;;;;;8422507;27;27520;-76
2022/10/21 20:26:21;;;;;;;;;;;;;;;;;;8419269;27;28768;-76
2022/10/21 20:30:21;;;;;;;;;;;;;;;;;;8423864;27;28407;-75
2022/10/21 20:34:21;;;;;;;;;;;;;;;;;;8415680;27;28499;-79
2022/10/21 20:38:21;;;;;;;;;;;;;;;;;;8420886;27;29208;-78
2022/10/21 20:42:22;;;;;;;;;;;;;;;;;;8419403;27;27406;-78
2022/10/21 20:46:22;;;;;;;;;;;;;;;;;;8421082;27;28169;-77
2022/10/21 20:50:22;;;;;;;;;;;;;;;;;;8417760;27;28344;-77
2022/10/21 20:54:23;;;;;;;;;;;;;;;;;;8423321;27;27302;-77
2022/10/21 20:58:23;;;;;;;;;;;;;;;;;;8434407;27;28371;-77
2022/10/21 21:02:24;;;;;;;;;;;;;;;;;;8421630;27;28824;-74
2022/10/21 21:06:24;;;;;;;;;;;;;;;;;;8428213;27;28186;-77
2022/10/21 21:10:24;;;;;;;;;;;;;;;;;;8422618;27;27453;-78
2022/10/21 21:14:24;;;;;;;;;;;;;;;;;;8422926;27;28482;-76
2022/10/21 21:18:24;;;;;;;;;;;;;;;;;;8429807;27;28576;-77
2022/10/21 21:22:24;;;;;;;;;;;;;;;;;;8427448;27;29103;-75
2022/10/21 21:26:25;;;;;;;;;;;;;;;;;;8430379;27;28620;-77
2022/10/21 21:30:25;;;;;;;;;;;;;;;;;;8433803;27;29198;-77
2022/10/21 21:34:25;;;;;;;;;;;;;;;;;;8425252;27;28383;-79
2022/10/21 21:38:25;;;;;;;;;;;;;;;;;;8426864;27;28559;-76
2022/10/21 21:42:25;;;;;;;;;;;;;;;;;;8429070;27;28249;-77
2022/10/21 21:46:25;;;;;;;;;;;;;;;;;;8424342;27;28742;-76
2022/10/21 21:50:25;;;;;;;;;;;;;;;;;;8424528;27;28505;-75
2022/10/21 21:54:25;;;;;;;;;;;;;;;;;;8428857;27;28370;-77
2022/10/21 21:58:26;;;;;;;;;;;;;;;;;;8430446;27;28286;-76
2022/10/21 22:02:26;;;;;;;;;;;;;;;;;;8423046;27;28224;-76
2022/10/21 22:06:26;;;;;;;;;;;;;;;;;;8423261;27;27355;-77
2022/10/21 22:10:26;;;;;;;;;;;;;;;;;;8413630;27;28659;-77
2022/10/21 22:14:26;;;;;;;;;;;;;;;;;;8425763;27;28581;-77
2022/10/21 22:18:26;;;;;;;;;;;;;;;;;;8418796;27;28040;-76
2022/10/21 22:22:26;;;;;;;;;;;;;;;;;;8427785;27;29449;-77
2022/10/21 22:26:27;;;;;;;;;;;;;;;;;;8424242;27;29199;-78
2022/10/21 22:30:27;;;;;;;;;;;;;;;;;;8440639;27;29232;-76
2022/10/21 22:34:28;;;;;;;;;;;;;;;;;;8425769;27;28386;-75
2022/10/21 22:38:28;;;;;;;;;;;;;;;;;;8422522;27;28726;-76
2022/10/21 22:42:28;;;;;;;;;;;;;;;;;;8420667;27;27462;-78
2022/10/21 22:46:28;;;;;;;;;;;;;;;;;;8417965;27;28534;-78
2022/10/21 22:50:28;;;;;;;;;;;;;;;;;;8418193;27;27234;-77
2022/10/21 22:54:29;;;;;;;;;;;;;;;;;;8421380;27;28228;-78
2022/10/21 22:58:29;;;;;;;;;;;;;;;;;;8425660;27;28904;-77
2022/10/21 23:02:29;;;;;;;;;;;;;;;;;;8424341;27;28218;-77
2022/10/21 23:06:29;;;;;;;;;;;;;;;;;;8421171;27;28814;-78
2022/10/21 23:10:29;;;;;;;;;;;;;;;;;;8422162;27;28495;-77
2022/10/21 23:14:29;;;;;;;;;;;;;;;;;;8431153;27;27768;-77
2022/10/21 23:18:30;;;;;;;;;;;;;;;;;;8421295;27;28639;-76
2022/10/21 23:22:30;;;;;;;;;;;;;;;;;;8427786;27;28140;-75
2022/10/21 23:26:30;;;;;;;;;;;;;;;;;;8419118;27;28164;-76
2022/10/21 23:30:30;;;;;;;;;;;;;;;;;;8430413;27;28123;-77
2022/10/21 23:34:30;;;;;;;;;;;;;;;;;;8420231;27;27349;-77
2022/10/21 23:38:30;;;;;;;;;;;;;;;;;;8421049;27;28189;-77
2022/10/21 23:42:30;;;;;;;;;;;;;;;;;;8417166;27;28378;-77
2022/10/21 23:46:31;;;;;;;;;;;;;;;;;;8425732;27;28180;-76
2022/10/21 23:50:31;;;;;;;;;;;;;;;;;;8425025;27;27649;-78
2022/10/21 23:54:31;;;;;;;;;;;;;;;;;;8424702;27;27651;-78
2022/10/21 23:58:31;;;;;;;;;;;;;;;;;;8422053;27;27572;-76
